Toston, Montana
Current Conditions -  °F | °C
As of 8:56 AM on Friday 31 Oct 2014 (Local Time) from KBZN Reporting Station
Clear Clear  
Wind Chill: 26°   Ceiling: Unl
Heat Index: 31°   Visibility: 10mi
Dew Point: 28°   Wind: 5mph
Humidity: 89%   Direction: 190°S
Pressure: 29.95"   Gusts: NA
Location:  46.18°N, 111.44°W
Report Text: KBZN 311456Z 19004KT 10SM CLR M01/M02 A2995 RMK AO2 SLP159 T10061022 56010
Loading
Personal Weather Stations






























Interactive Weather Map
Tropical Storm Tracking
New forecast layout! Learn more

10-Day Weather Forecast

Advertisements
Track Severe Weather on mobile